Shellharbour, Australia
Current Conditions -  °F | °C
As of 3:00 PM on Sunday 23 Nov 2014 (Local Time) from YSNW Reporting Station
Clear Clear  
Wind Chill: 86°   Ceiling: Unl
Heat Index: 87°   Visibility: 6mi
Dew Point: 64°   Wind: 12mph
Humidity: 48%   Direction: 120°ESE
Pressure: 29.8"   Gusts: NA
Location:  34.58°S, 150.87°E
Report Text: YSNW 230400Z AUTO 12010KT 9999 // NCD 30/18 Q1009
Loading
Personal Weather Stations






























Interactive Weather Map New forecast layout! Learn more

10-Day Weather Forecast

Advertisements
Track Severe Weather on mobile